createdAt,value
2017-11-18T00:00:20.566Z,99.90
2017-11-18T00:02:48.037Z,99.90
2017-11-18T00:05:15.497Z,99.90
2017-11-18T00:07:42.994Z,99.90
2017-11-18T00:10:10.455Z,99.90
2017-11-18T00:12:37.918Z,99.90
2017-11-18T00:15:05.398Z,99.90
2017-11-18T00:17:32.877Z,99.90
2017-11-18T00:20:00.345Z,99.90
2017-11-18T00:22:27.824Z,99.90
2017-11-18T00:24:56.069Z,99.90
2017-11-18T00:27:23.533Z,99.90
2017-11-18T00:29:51.097Z,99.90
2017-11-18T00:32:18.589Z,99.90
2017-11-18T00:34:46.061Z,99.90
2017-11-18T00:37:13.541Z,99.90
2017-11-18T00:39:41.029Z,99.90
2017-11-18T00:42:08.493Z,99.90
2017-11-18T00:44:35.967Z,99.90
2017-11-18T00:47:04.197Z,99.90
2017-11-18T00:49:31.675Z,99.90
2017-11-18T00:51:59.147Z,99.90
2017-11-18T00:54:27.389Z,99.90
2017-11-18T00:56:54.855Z,99.90
2017-11-18T00:59:22.320Z,99.90
2017-11-18T01:01:49.799Z,99.90
2017-11-18T01:04:18.043Z,99.90
2017-11-18T01:06:45.506Z,99.90
2017-11-18T01:09:12.975Z,99.90
2017-11-18T01:11:40.436Z,99.90
2017-11-18T01:14:08.682Z,99.90
2017-11-18T01:16:36.158Z,99.90
2017-11-18T01:19:03.636Z,99.90
2017-11-18T01:21:31.860Z,99.90
2017-11-18T01:23:59.333Z,99.90
2017-11-18T01:26:26.800Z,99.90
2017-11-18T01:28:54.297Z,99.90
2017-11-18T01:31:21.759Z,99.90
2017-11-18T01:33:49.231Z,99.90
2017-11-18T01:36:16.705Z,99.90
2017-11-18T01:38:44.194Z,99.90
2017-11-18T01:41:12.435Z,99.90
2017-11-18T01:43:39.904Z,99.90
2017-11-18T01:46:07.377Z,99.90
2017-11-18T01:48:34.840Z,99.90
2017-11-18T01:51:02.365Z,99.90
2017-11-18T01:53:29.826Z,99.90
2017-11-18T01:55:57.298Z,99.90
2017-11-18T01:58:24.762Z,99.90
2017-11-18T02:00:52.249Z,99.90
2017-11-18T02:03:20.483Z,99.90
2017-11-18T02:05:47.953Z,99.90
2017-11-18T02:08:15.425Z,99.90
2017-11-18T02:10:42.889Z,99.90
2017-11-18T02:13:10.353Z,99.90
2017-11-18T02:15:38.596Z,99.90
2017-11-18T02:18:06.057Z,99.90
2017-11-18T02:20:33.528Z,99.90
2017-11-18T02:23:00.998Z,99.90
2017-11-18T02:25:29.237Z,99.90
2017-11-18T02:27:56.772Z,99.90
2017-11-18T02:30:24.229Z,99.90
2017-11-18T02:32:51.711Z,99.90
2017-11-18T02:35:19.174Z,99.90
2017-11-18T02:37:46.692Z,99.90
2017-11-18T02:40:14.161Z,99.90
2017-11-18T02:42:41.637Z,99.90
2017-11-18T02:45:09.094Z,99.90
2017-11-18T02:47:36.564Z,99.90
2017-11-18T02:50:04.029Z,99.90
2017-11-18T02:52:31.505Z,99.90
2017-11-18T02:54:59.733Z,99.90
2017-11-18T02:57:27.213Z,99.90
2017-11-18T02:59:54.673Z,99.90
2017-11-18T03:02:22.145Z,99.90
2017-11-18T03:04:49.605Z,99.90
2017-11-18T03:07:17.849Z,99.90
2017-11-18T03:09:45.332Z,99.90
2017-11-18T03:12:12.819Z,99.90
2017-11-18T03:14:41.049Z,99.90
2017-11-18T03:17:08.516Z,99.90
2017-11-18T03:19:35.992Z,99.90
2017-11-18T03:22:04.222Z,99.90
2017-11-18T03:24:31.701Z,99.90
2017-11-18T03:26:59.174Z,99.90
2017-11-18T03:29:26.687Z,99.90
2017-11-18T03:31:54.148Z,99.90
2017-11-18T03:34:21.617Z,99.90
2017-11-18T03:36:49.077Z,99.90
2017-11-18T03:39:16.550Z,99.90
2017-11-18T03:41:44.038Z,99.90
2017-11-18T03:44:12.272Z,99.90
2017-11-18T03:46:39.779Z,99.90
2017-11-18T03:49:07.256Z,99.90
2017-11-18T03:51:34.714Z,99.90
2017-11-18T03:54:02.202Z,99.90
2017-11-18T03:56:29.722Z,99.90
2017-11-18T03:58:57.201Z,99.90
2017-11-18T04:01:24.661Z,99.90
2017-11-18T04:03:52.132Z,99.90
2017-11-18T04:06:19.597Z,99.90
2017-11-18T04:08:47.060Z,99.90
2017-11-18T04:11:14.528Z,99.90
2017-11-18T04:13:42.030Z,99.90
2017-11-18T04:16:09.495Z,99.90
2017-11-18T04:18:36.965Z,99.90
2017-11-18T04:21:04.451Z,99.90
2017-11-18T04:23:31.925Z,99.90
2017-11-18T04:25:59.384Z,99.90
2017-11-18T04:28:26.849Z,99.90
2017-11-18T04:30:55.085Z,99.90
2017-11-18T04:33:22.549Z,99.90
2017-11-18T04:35:50.025Z,99.90
2017-11-18T04:38:17.489Z,99.90
2017-11-18T04:40:44.985Z,99.90
2017-11-18T04:43:12.454Z,99.90
2017-11-18T04:45:39.929Z,99.90
2017-11-18T04:48:07.393Z,99.90
2017-11-18T04:50:34.865Z,99.90
2017-11-18T04:53:02.340Z,99.90
2017-11-18T04:55:30.581Z,99.90
2017-11-18T04:57:58.045Z,99.90
2017-11-18T05:00:25.520Z,99.90
2017-11-18T05:02:52.985Z,99.90
2017-11-18T05:05:21.232Z,99.90
2017-11-18T05:07:48.693Z,99.90
2017-11-18T05:10:16.166Z,99.90
2017-11-18T05:12:43.624Z,99.90
2017-11-18T05:15:11.097Z,99.90
2017-11-18T05:17:39.324Z,99.90
2017-11-18T05:20:06.796Z,99.90
2017-11-18T05:22:34.262Z,99.90
2017-11-18T05:25:01.750Z,99.90
2017-11-18T05:27:29.982Z,99.90
2017-11-18T05:29:57.447Z,99.90
2017-11-18T05:32:24.922Z,99.90
2017-11-18T05:34:52.388Z,99.90
2017-11-18T05:37:19.857Z,99.90
2017-11-18T05:39:48.091Z,99.90
2017-11-18T05:42:15.553Z,99.90
2017-11-18T05:44:43.036Z,99.90
2017-11-18T05:47:10.502Z,99.90
2017-11-18T05:49:38.736Z,99.90
2017-11-18T05:52:06.214Z,99.90
2017-11-18T05:54:33.697Z,99.90
2017-11-18T05:57:01.944Z,99.90
2017-11-18T05:59:29.405Z,99.90
2017-11-18T06:01:56.908Z,99.90
2017-11-18T06:04:24.369Z,99.90
2017-11-18T06:06:51.865Z,99.90
2017-11-18T06:09:19.338Z,99.90
2017-11-18T06:11:46.834Z,99.90
2017-11-18T06:14:14.362Z,99.90
2017-11-18T06:16:41.825Z,99.90
2017-11-18T06:19:10.052Z,99.90
2017-11-18T06:21:37.532Z,99.90
2017-11-18T06:24:04.997Z,99.90
2017-11-18T06:26:32.475Z,99.90
2017-11-18T06:29:00.722Z,99.90
2017-11-18T06:31:28.193Z,99.90
2017-11-18T06:33:55.656Z,99.90
2017-11-18T06:36:23.126Z,99.90
2017-11-18T06:38:51.364Z,99.90
2017-11-18T06:41:18.837Z,99.90
2017-11-18T06:43:46.305Z,99.90
2017-11-18T06:46:13.768Z,99.90
2017-11-18T06:48:42.012Z,99.90
2017-11-18T06:51:09.496Z,99.90
2017-11-18T06:53:36.974Z,99.90
2017-11-18T06:56:05.208Z,99.90
2017-11-18T06:58:32.684Z,99.90
2017-11-18T07:01:00.190Z,99.90
2017-11-18T07:03:27.649Z,99.90
2017-11-18T07:05:55.124Z,99.90
2017-11-18T07:08:22.601Z,99.90
2017-11-18T07:10:50.053Z,99.90
2017-11-18T07:13:17.561Z,99.90
2017-11-18T07:15:45.793Z,99.90
2017-11-18T07:18:13.252Z,99.90
2017-11-18T07:20:40.730Z,99.90
2017-11-18T07:23:08.978Z,99.90
2017-11-18T07:25:36.441Z,99.90
2017-11-18T07:28:03.913Z,99.90
2017-11-18T07:30:31.381Z,99.90
2017-11-18T07:32:59.633Z,99.90
2017-11-18T07:35:27.097Z,99.90
2017-11-18T07:37:54.568Z,99.90
2017-11-18T07:40:22.817Z,99.90
2017-11-18T07:42:50.312Z,99.90
2017-11-18T07:45:18.561Z,99.90
2017-11-18T07:47:46.052Z,99.90
2017-11-18T07:50:14.285Z,99.90
2017-11-18T07:52:41.753Z,99.90
2017-11-18T07:55:09.217Z,99.90
2017-11-18T07:57:36.685Z,99.90
2017-11-18T08:00:04.930Z,99.90
2017-11-18T08:02:32.425Z,99.90
2017-11-18T08:05:00.651Z,99.90
2017-11-18T08:07:28.121Z,99.90
2017-11-18T08:09:55.589Z,99.90
2017-11-18T08:12:23.068Z,99.90
2017-11-18T08:14:50.561Z,99.90
2017-11-18T08:17:18.025Z,99.90
2017-11-18T08:19:45.502Z,99.90
2017-11-18T08:22:12.965Z,99.90
2017-11-18T08:24:40.436Z,99.90
2017-11-18T08:27:07.908Z,99.90
2017-11-18T08:29:35.382Z,99.90
2017-11-18T08:32:03.614Z,99.90
2017-11-18T08:34:31.085Z,99.90
2017-11-18T08:36:58.560Z,99.90
2017-11-18T08:39:26.802Z,99.90
2017-11-18T08:41:54.277Z,99.90
2017-11-18T08:44:21.748Z,99.90
2017-11-18T08:46:49.243Z,99.90
2017-11-18T08:49:17.457Z,99.90
2017-11-18T08:51:44.932Z,99.90
2017-11-18T08:54:12.449Z,99.90
2017-11-18T08:56:39.929Z,99.90
2017-11-18T08:59:07.403Z,99.90
2017-11-18T09:01:34.868Z,99.90
2017-11-18T09:04:02.332Z,99.90
2017-11-18T09:06:30.566Z,99.90
2017-11-18T09:08:58.029Z,99.90
2017-11-18T09:11:25.522Z,99.90
2017-11-18T09:13:53.065Z,99.90
2017-11-18T09:16:20.532Z,99.90
2017-11-18T09:18:48.017Z,99.90
2017-11-18T09:21:15.486Z,99.90
2017-11-18T09:23:42.965Z,99.90
2017-11-18T09:26:10.437Z,99.90
2017-11-18T09:28:37.898Z,99.90
2017-11-18T09:31:05.378Z,99.90
2017-11-18T09:33:32.846Z,99.90
2017-11-18T09:36:01.159Z,99.90
2017-11-18T09:38:28.643Z,99.90
2017-11-18T09:40:56.106Z,99.90
2017-11-18T09:43:23.577Z,99.90
2017-11-18T09:45:51.073Z,99.90
2017-11-18T09:48:18.532Z,99.90
2017-11-18T09:50:46.048Z,99.90
2017-11-18T09:53:13.512Z,99.90
2017-11-18T09:55:40.972Z,99.90
2017-11-18T09:58:08.440Z,99.90
2017-11-18T10:00:36.680Z,99.90
2017-11-18T10:03:04.148Z,99.90
2017-11-18T10:05:31.725Z,99.90
2017-11-18T10:07:59.192Z,99.90
2017-11-18T10:10:27.424Z,99.90
2017-11-18T10:12:54.893Z,99.90
2017-11-18T10:15:22.357Z,99.90
2017-11-18T10:17:49.873Z,99.90
2017-11-18T10:20:17.398Z,99.90
2017-11-18T10:22:44.864Z,99.90
2017-11-18T10:25:13.102Z,99.90
2017-11-18T10:27:40.587Z,99.90
2017-11-18T10:30:08.825Z,99.90
2017-11-18T10:32:36.289Z,99.90
2017-11-18T10:35:03.753Z,99.90
2017-11-18T10:37:31.225Z,99.90
2017-11-18T10:39:58.700Z,99.90
2017-11-18T10:42:26.933Z,99.90
2017-11-18T10:44:54.406Z,99.90
2017-11-18T10:47:21.870Z,99.90
2017-11-18T10:49:49.332Z,99.90
2017-11-18T10:52:16.813Z,99.90
2017-11-18T10:54:45.041Z,99.90
2017-11-18T10:57:12.508Z,99.90
2017-11-18T10:59:39.976Z,99.90
2017-11-18T11:02:07.469Z,99.90
2017-11-18T11:04:34.945Z,99.90
2017-11-18T11:07:02.402Z,99.90
2017-11-18T11:09:29.871Z,99.90
2017-11-18T11:14:31.226Z,99.90
2017-11-18T11:16:58.705Z,99.90
2017-11-18T11:19:26.173Z,99.90
2017-11-18T11:21:53.634Z,99.90
2017-11-18T11:24:21.109Z,99.90
2017-11-18T11:26:48.573Z,99.90
2017-11-18T11:29:16.824Z,99.90
2017-11-18T11:31:44.285Z,99.90
2017-11-18T11:34:11.756Z,99.90
2017-11-18T11:36:39.217Z,99.90
2017-11-18T11:39:06.728Z,99.90
2017-11-18T11:41:34.223Z,99.90
2017-11-18T11:44:01.681Z,99.90
2017-11-18T11:46:29.136Z,99.90
2017-11-18T11:48:56.634Z,99.90
2017-11-18T11:51:24.097Z,99.90
2017-11-18T11:53:51.618Z,99.90
2017-11-18T11:56:19.086Z,99.90
2017-11-18T11:58:46.545Z,99.90
2017-11-18T12:01:14.777Z,99.90
2017-11-18T12:03:42.260Z,99.90
2017-11-18T12:06:09.733Z,99.90
2017-11-18T12:08:37.958Z,99.90
2017-11-18T12:11:05.433Z,99.90
2017-11-18T12:13:32.893Z,99.90
2017-11-18T12:16:00.392Z,99.90
2017-11-18T12:18:28.629Z,99.90
2017-11-18T12:20:56.117Z,99.90
2017-11-18T12:23:24.345Z,99.90
2017-11-18T12:25:51.812Z,99.90
2017-11-18T12:28:19.281Z,99.90
2017-11-18T12:30:46.786Z,99.90
2017-11-18T12:33:14.305Z,99.90
2017-11-18T12:35:41.776Z,99.90
2017-11-18T12:38:09.237Z,99.90
2017-11-18T12:40:37.468Z,99.90
2017-11-18T12:43:04.933Z,99.90
2017-11-18T12:45:32.432Z,99.90
2017-11-18T12:48:00.660Z,99.90
2017-11-18T12:50:28.139Z,99.90
2017-11-18T12:52:55.617Z,99.90
2017-11-18T12:55:23.073Z,99.90
2017-11-18T12:57:50.540Z,99.90
2017-11-18T13:00:18.773Z,99.90
2017-11-18T13:02:46.245Z,99.90
2017-11-18T13:05:13.709Z,99.90
2017-11-18T13:07:41.181Z,99.90
2017-11-18T13:10:08.644Z,99.90
2017-11-18T13:12:36.905Z,99.90
2017-11-18T13:15:04.361Z,99.90
2017-11-18T13:17:31.872Z,99.90
2017-11-18T13:19:59.386Z,99.90
2017-11-18T13:22:27.688Z,99.90
2017-11-18T13:24:55.216Z,99.90
2017-11-18T13:27:22.693Z,99.90
2017-11-18T13:29:50.921Z,99.90
2017-11-18T13:32:18.395Z,99.90
2017-11-18T13:34:45.860Z,99.90
2017-11-18T13:37:13.338Z,99.90
2017-11-18T13:39:41.570Z,99.90
2017-11-18T13:42:09.056Z,99.90
2017-11-18T13:44:36.536Z,99.90
2017-11-18T13:47:04.765Z,99.90
2017-11-18T13:49:32.237Z,99.90
2017-11-18T13:51:59.701Z,99.90
2017-11-18T13:54:27.173Z,99.90
2017-11-18T13:56:55.437Z,99.90
2017-11-18T13:59:22.908Z,99.90
2017-11-18T14:01:51.169Z,99.90
2017-11-18T14:04:18.633Z,99.90
2017-11-18T14:06:46.102Z,99.90
2017-11-18T14:09:14.341Z,99.90
2017-11-18T14:11:41.810Z,99.90
2017-11-18T14:14:09.285Z,99.90
2017-11-18T14:16:36.745Z,99.90
2017-11-18T14:19:04.985Z,99.90
2017-11-18T14:21:32.453Z,99.90
2017-11-18T14:23:59.958Z,99.90
2017-11-18T14:26:27.421Z,99.90
2017-11-18T14:28:54.893Z,99.90
2017-11-18T14:31:22.352Z,99.90
2017-11-18T14:33:49.820Z,99.90
2017-11-18T14:36:17.290Z,99.90
2017-11-18T14:38:44.769Z,99.90
2017-11-18T14:41:12.333Z,99.90
2017-11-18T14:43:39.808Z,99.90
2017-11-18T14:46:08.036Z,99.90
2017-11-18T14:48:35.502Z,99.90
2017-11-18T14:51:02.972Z,99.90
2017-11-18T14:53:30.447Z,99.90
2017-11-18T14:55:58.702Z,99.90
2017-11-18T14:58:26.173Z,99.90
2017-11-18T15:00:53.643Z,99.90
2017-11-18T15:03:21.877Z,99.90
2017-11-18T15:05:49.353Z,99.90
2017-11-18T15:08:16.861Z,99.90
2017-11-18T15:10:44.334Z,99.90
2017-11-18T15:13:11.788Z,99.90
2017-11-18T15:15:41.737Z,99.90
2017-11-18T15:18:15.388Z,99.90
2017-11-18T15:20:48.508Z,99.90
2017-11-18T15:23:21.837Z,99.90
2017-11-18T15:25:55.093Z,99.90
2017-11-18T15:28:28.328Z,99.90
2017-11-18T15:34:03.133Z,99.90
2017-11-18T15:36:45.518Z,99.90
2017-11-18T15:39:12.974Z,99.90
2017-11-18T15:41:40.530Z,99.90
2017-11-18T15:44:18.849Z,99.90
2017-11-18T15:50:06.997Z,99.90
2017-11-18T15:52:41.098Z,99.70
2017-11-18T15:55:14.960Z,99.90
2017-11-18T16:03:54.496Z,99.60
2017-11-18T16:06:38.517Z,99.40
2017-11-18T16:09:05.985Z,99.40
2017-11-18T16:11:34.208Z,99.00
2017-11-18T16:14:01.689Z,99.00
2017-11-18T16:16:29.149Z,98.50
2017-11-18T16:18:56.621Z,98.30
2017-11-18T16:21:24.085Z,98.40
2017-11-18T16:23:51.555Z,98.00
2017-11-18T16:26:19.773Z,97.70
2017-11-18T16:28:47.265Z,97.70
2017-11-18T16:31:14.758Z,97.40
2017-11-18T16:33:42.281Z,97.30
2017-11-18T16:36:09.753Z,97.00
2017-11-18T16:38:38.001Z,96.30
2017-11-18T16:41:05.496Z,96.30
2017-11-18T16:43:33.721Z,95.90
2017-11-18T16:46:01.193Z,95.80
2017-11-18T16:48:28.658Z,95.90
2017-11-18T16:50:56.128Z,95.70
2017-11-18T16:53:24.359Z,95.00
2017-11-18T16:55:51.828Z,95.50
2017-11-18T16:58:19.302Z,95.00
2017-11-18T17:00:46.773Z,94.90
2017-11-18T17:03:14.246Z,95.30
2017-11-18T17:05:42.477Z,95.70
2017-11-18T17:08:09.944Z,95.60
2017-11-18T17:10:37.442Z,95.60
2017-11-18T17:13:05.688Z,95.60
2017-11-18T17:15:33.149Z,95.50
2017-11-18T17:18:00.608Z,95.50
2017-11-18T17:20:28.077Z,95.50
2017-11-18T17:22:55.629Z,95.50
2017-11-18T17:25:23.093Z,95.00
2017-11-18T17:27:50.574Z,94.90
2017-11-18T17:30:18.073Z,94.90
2017-11-18T17:32:45.538Z,95.20
2017-11-18T17:35:13.067Z,94.90
2017-11-18T17:37:40.539Z,94.70
2017-11-18T17:40:08.003Z,94.70
2017-11-18T17:42:35.529Z,94.50
2017-11-18T17:45:02.980Z,94.70
2017-11-18T17:47:30.459Z,94.60
2017-11-18T17:49:57.928Z,94.80
2017-11-18T17:52:25.400Z,94.60
2017-11-18T17:54:52.874Z,94.40
2017-11-18T17:57:20.345Z,94.50
2017-11-18T17:59:48.600Z,95.00
2017-11-18T18:02:16.074Z,94.70
2017-11-18T18:04:43.536Z,95.00
2017-11-18T18:07:11.305Z,95.30
2017-11-18T18:09:39.535Z,95.50
2017-11-18T18:12:07.012Z,95.80
2017-11-18T18:14:34.481Z,96.30
2017-11-18T18:17:01.961Z,96.70
2017-11-18T18:19:30.181Z,97.30
2017-11-18T18:21:57.650Z,97.30
2017-11-18T18:24:25.128Z,97.50
2017-11-18T18:26:52.596Z,97.60
2017-11-18T18:29:20.829Z,97.80
2017-11-18T18:31:48.341Z,97.80
2017-11-18T18:34:16.573Z,98.20
2017-11-18T18:36:44.033Z,98.20
2017-11-18T18:39:11.528Z,97.50
2017-11-18T18:41:39.748Z,97.20
2017-11-18T18:44:07.213Z,97.20
2017-11-18T18:46:34.691Z,97.10
2017-11-18T18:49:02.930Z,95.80
2017-11-18T18:51:30.429Z,95.80
2017-11-18T18:53:57.944Z,96.10
2017-11-18T18:56:25.466Z,96.10
2017-11-18T18:58:53.700Z,95.50
2017-11-18T19:01:21.181Z,95.40
2017-11-18T19:03:48.652Z,95.50
2017-11-18T19:06:16.111Z,95.70
2017-11-18T19:08:44.349Z,95.70
2017-11-18T19:11:11.830Z,95.70
2017-11-18T19:13:39.297Z,95.70
2017-11-18T19:16:06.775Z,95.50
2017-11-18T19:18:34.273Z,94.90
2017-11-18T19:21:01.729Z,94.70
2017-11-18T19:23:29.197Z,94.00
2017-11-18T19:25:56.660Z,93.70
2017-11-18T19:28:24.140Z,93.60
2017-11-18T19:30:51.597Z,93.60
2017-11-18T19:33:19.053Z,93.50
2017-11-18T19:35:46.521Z,93.30
2017-11-18T19:38:14.766Z,93.20
2017-11-18T19:40:42.237Z,93.20
2017-11-18T19:43:09.694Z,92.80
2017-11-18T19:45:37.161Z,92.50
2017-11-18T19:48:04.617Z,92.30
2017-11-18T19:50:32.080Z,92.40
2017-11-18T19:53:00.309Z,92.40
2017-11-18T19:55:27.784Z,92.20
2017-11-18T19:57:55.240Z,92.50
2017-11-18T20:00:22.712Z,92.60
2017-11-18T20:02:50.218Z,92.70
2017-11-18T20:05:17.741Z,93.00
2017-11-18T20:07:45.196Z,93.10
2017-11-18T20:10:12.673Z,93.20
2017-11-18T20:12:40.909Z,93.70
2017-11-18T20:15:08.485Z,93.70
2017-11-18T20:17:35.969Z,94.00
2017-11-18T20:20:04.208Z,94.40
2017-11-18T20:22:31.665Z,94.40
2017-11-18T20:24:59.133Z,94.60
2017-11-18T20:27:26.593Z,94.70
2017-11-18T20:29:54.073Z,94.90
2017-11-18T20:32:22.309Z,95.00
2017-11-18T20:34:49.775Z,95.00
2017-11-18T20:37:17.255Z,95.10
2017-11-18T20:39:44.709Z,95.10
2017-11-18T20:42:12.184Z,95.30
2017-11-18T20:44:40.404Z,95.40
2017-11-18T20:47:07.877Z,95.40
2017-11-18T20:49:35.342Z,95.50
2017-11-18T20:52:02.813Z,95.50
2017-11-18T20:54:30.272Z,95.40
2017-11-18T20:56:57.745Z,95.00
2017-11-18T20:59:25.972Z,94.60
2017-11-18T21:01:53.436Z,94.60
2017-11-18T21:04:20.898Z,94.40
2017-11-18T21:06:48.372Z,94.30
2017-11-18T21:09:15.841Z,94.10
2017-11-18T21:11:44.076Z,93.70
2017-11-18T21:14:11.541Z,93.70
2017-11-18T21:16:39.136Z,93.70
2017-11-18T21:19:07.353Z,93.60
2017-11-18T21:21:34.829Z,93.60
2017-11-18T21:24:02.290Z,93.70
2017-11-18T21:26:29.782Z,93.60
2017-11-18T21:28:58.016Z,93.10
2017-11-18T21:31:25.487Z,93.10
2017-11-18T21:33:52.958Z,93.10
2017-11-18T21:36:20.433Z,93.00
2017-11-18T21:38:49.064Z,92.60
2017-11-18T21:41:16.517Z,92.50
2017-11-18T21:43:43.994Z,92.50
2017-11-18T21:46:11.483Z,92.40
2017-11-18T21:48:39.726Z,92.40
2017-11-18T21:51:07.185Z,92.30
2017-11-18T21:53:34.670Z,92.30
2017-11-18T21:56:02.132Z,92.20
2017-11-18T21:58:30.375Z,91.70
2017-11-18T22:00:57.836Z,91.70
2017-11-18T22:03:25.314Z,91.50
2017-11-18T22:05:52.768Z,91.50
2017-11-18T22:08:20.245Z,91.60
2017-11-18T22:10:48.464Z,91.80
2017-11-18T22:13:15.937Z,91.70
2017-11-18T22:15:43.412Z,91.50
2017-11-18T22:18:10.881Z,91.60
2017-11-18T22:20:38.354Z,91.80
2017-11-18T22:23:06.586Z,91.70
2017-11-18T22:25:34.049Z,91.70
2017-11-18T22:28:01.513Z,91.70
2017-11-18T22:30:28.984Z,91.80
2017-11-18T22:32:56.460Z,92.00
2017-11-18T22:35:24.702Z,92.00
2017-11-18T22:37:52.205Z,92.00
2017-11-18T22:40:19.677Z,91.90
2017-11-18T22:42:47.185Z,91.60
2017-11-18T22:45:14.648Z,91.70
2017-11-18T22:47:42.117Z,91.50
2017-11-18T22:50:10.364Z,91.70
2017-11-18T22:52:37.826Z,91.60
2017-11-18T22:55:05.298Z,91.30
2017-11-18T22:57:32.761Z,91.50
2017-11-18T23:00:00.997Z,91.70
2017-11-18T23:02:28.482Z,91.70
2017-11-18T23:04:55.949Z,91.80
2017-11-18T23:07:24.183Z,92.20
2017-11-18T23:09:51.652Z,92.10
2017-11-18T23:12:19.110Z,92.30
2017-11-18T23:14:46.573Z,92.50
2017-11-18T23:17:14.033Z,92.60
2017-11-18T23:19:41.512Z,92.70
2017-11-18T23:22:09.738Z,93.10
2017-11-18T23:24:37.218Z,93.00
2017-11-18T23:27:04.696Z,93.20
2017-11-18T23:29:32.924Z,93.60
2017-11-18T23:32:00.402Z,93.30
2017-11-18T23:34:27.877Z,93.30
2017-11-18T23:36:55.349Z,93.30
2017-11-18T23:39:22.841Z,93.30
2017-11-18T23:41:50.313Z,93.20
2017-11-18T23:44:17.773Z,93.30
2017-11-18T23:46:45.260Z,93.30
2017-11-18T23:49:12.733Z,93.30
2017-11-18T23:51:40.210Z,93.40
2017-11-18T23:54:07.691Z,93.30
2017-11-18T23:56:35.189Z,93.30
2017-11-18T23:59:02.657Z,93.50
